Time;durP1;ratioP1;P1;durP2;ratioP2;P2;SDS_P1;SDS_P2;PMS_P1;PMS_P2;Temp;Humidity;BMP_temperature;BMP_pressure;BME280_temperature;BME280_humidity;BME280_pressure;Samples;Min_cycle;Max_cycle;Signal;HPM_P1;HPM_P2
2022/09/30 00:00:04;;;;;;;5.20;2.97;;;8.20;99.90;;;;;;5070478;28;20040;-68
2022/09/30 00:02:34;;;;;;;6.00;3.20;;;8.20;99.90;;;;;;5070793;28;20086;-69
2022/09/30 00:05:00;;;;;;;5.93;2.87;;;8.20;99.90;;;;;;5070883;28;20116;-68
2022/09/30 00:07:26;;;;;;;8.93;2.90;;;8.10;99.90;;;;;;5074217;28;20116;-69
2022/09/30 00:09:52;;;;;;;7.53;2.90;;;8.10;99.90;;;;;;5074297;28;20079;-68
2022/09/30 00:12:18;;;;;;;5.60;2.83;;;8.10;99.90;;;;;;5074376;28;20035;-69
2022/09/30 00:14:44;;;;;;;8.53;3.27;;;8.10;99.90;;;;;;5074709;28;20039;-68
2022/09/30 00:17:10;;;;;;;8.67;3.10;;;8.10;99.90;;;;;;5074288;28;20107;-68
2022/09/30 00:19:36;;;;;;;6.23;2.90;;;8.10;99.90;;;;;;5074363;28;20040;-69
2022/09/30 00:22:02;;;;;;;10.00;3.30;;;8.10;99.90;;;;;;5074242;28;20037;-68
2022/09/30 00:24:28;;;;;;;8.00;3.37;;;8.00;99.90;;;;;;5074150;28;20103;-69
2022/09/30 00:26:54;;;;;;;8.20;3.13;;;8.00;99.90;;;;;;5074439;28;20608;-69
2022/09/30 00:29:20;;;;;;;5.20;3.00;;;8.00;99.90;;;;;;5074014;28;20033;-69
2022/09/30 00:31:46;;;;;;;9.20;3.30;;;8.00;99.90;;;;;;5056016;28;20032;-69
2022/09/30 00:34:12;;;;;;;6.00;3.10;;;8.10;99.90;;;;;;5056263;28;20035;-68
2022/09/30 00:36:54;;;;;;;5.27;3.27;;;8.10;99.90;;;;;;5073966;28;20044;-69
2022/09/30 00:39:26;;;;;;;7.57;3.10;;;8.10;99.90;;;;;;5074027;28;20028;-68
2022/09/30 00:41:56;;;;;;;8.00;3.00;;;8.10;99.90;;;;;;5074140;28;20400;-68
2022/09/30 00:44:45;;;;;;;6.03;3.53;;;8.10;99.90;;;;;;5074079;28;20105;-68
2022/09/30 00:47:48;;;;;;;7.18;3.05;;;8.00;99.90;;;;;;5073695;28;20025;-69
2022/09/30 00:50:26;;;;;;;8.20;3.27;;;8.00;99.90;;;;;;5073673;28;20025;-68
2022/09/30 00:53:00;;;;;;;8.80;4.00;;;8.00;99.90;;;;;;5074064;28;20035;-68
2022/09/30 00:55:35;;;;;;;9.07;3.80;;;8.00;99.90;;;;;;5073701;28;20032;-68
2022/09/30 00:58:03;;;;;;;7.87;3.10;;;7.90;99.90;;;;;;5055750;28;20033;-68
2022/09/30 01:00:29;;;;;;;9.20;3.90;;;7.90;99.90;;;;;;5073230;28;20028;-69
2022/09/30 01:02:55;;;;;;;9.50;3.90;;;7.80;99.90;;;;;;5073602;28;20027;-69
2022/09/30 01:05:25;;;;;;;9.30;4.23;;;7.80;99.90;;;;;;5073571;28;20029;-68
2022/09/30 01:07:51;;;;;;;;;;;7.80;99.90;;;;;;5073865;28;20021;-69
2022/09/30 01:10:17;;;;;;;6.77;3.40;;;7.90;99.90;;;;;;5073450;28;20250;-69
2022/09/30 01:12:43;;;;;;;10.37;3.90;;;7.90;99.90;;;;;;5073232;28;20039;-68
2022/09/30 01:15:10;;;;;;;8.03;3.60;;;7.80;99.90;;;;;;5073348;28;20032;-68
2022/09/30 01:17:54;;;;;;;9.20;4.33;;;7.80;99.90;;;;;;5072086;28;20051;-68
2022/09/30 01:20:43;;;;;;;7.80;4.20;;;7.90;99.90;;;;;;5073124;28;20036;-68
2022/09/30 01:23:17;;;;;;;8.32;3.80;;;7.90;99.90;;;;;;5073333;28;20088;-68
2022/09/30 01:25:55;;;;;;;11.10;3.77;;;7.90;99.90;;;;;;5073015;28;20488;-69
2022/09/30 01:28:30;;;;;;;8.03;4.10;;;7.90;99.90;;;;;;5073215;28;20089;-68
2022/09/30 01:31:02;;;;;;;9.73;4.30;;;7.90;99.90;;;;;;5072922;28;20108;-69
2022/09/30 01:33:57;;;;;;;8.10;4.73;;;7.90;99.90;;;;;;5073014;28;20035;-68
2022/09/30 01:36:28;;;;;;;8.53;4.43;;;7.80;99.90;;;;;;5068014;28;20045;-68
2022/09/30 01:39:19;;;;;;;11.07;4.57;;;7.80;99.90;;;;;;5054799;28;20028;-68
2022/09/30 01:41:54;;;;;;;7.73;4.00;;;7.70;99.90;;;;;;5072651;28;20051;-68
2022/09/30 01:44:45;;;;;;;8.67;4.63;;;7.70;99.90;;;;;;5073028;28;20024;-68
2022/09/30 01:47:18;;;;;;;8.93;4.30;;;7.60;99.90;;;;;;5072784;28;20155;-68
2022/09/30 01:50:04;;;;;;;10.53;4.07;;;7.60;99.90;;;;;;5072591;28;20103;-68
2022/09/30 01:52:58;;;;;;;8.13;4.53;;;7.60;99.90;;;;;;5072656;28;20113;-69
2022/09/30 01:55:31;;;;;;;9.43;4.50;;;7.60;99.90;;;;;;5064894;28;20425;-68
2022/09/30 01:58:00;;;;;;;9.73;4.20;;;7.70;99.90;;;;;;5054598;28;20316;-69
2022/09/30 02:00:31;;;;;;;10.80;4.80;;;7.70;99.90;;;;;;5072688;28;20075;-69
2022/09/30 02:03:08;;;;;;;10.73;4.40;;;7.60;99.90;;;;;;5054397;28;20390;-68
2022/09/30 02:05:43;;;;;;;11.53;4.37;;;7.60;99.90;;;;;;5072689;28;20021;-68
2022/09/30 02:08:38;;;;;;;9.77;4.87;;;7.60;99.90;;;;;;5072419;28;20033;-68
2022/09/30 02:11:07;;;;;;;8.70;5.10;;;7.60;99.90;;;;;;5072211;28;20496;-68
2022/09/30 02:13:34;;;;;;;8.10;4.80;;;7.60;99.90;;;;;;5072371;28;20044;-68
2022/09/30 02:16:11;;;;;;;12.00;5.30;;;7.50;99.90;;;;;;5072136;28;20107;-68
2022/09/30 02:18:54;;;;;;;9.17;5.13;;;7.50;99.90;;;;;;5071950;28;20025;-68
2022/09/30 02:21:25;;;;;;;7.90;5.23;;;7.60;99.90;;;;;;5072013;28;20020;-69
2022/09/30 02:23:59;;;;;;;12.23;5.13;;;7.60;99.90;;;;;;5072148;28;20029;-68
2022/09/30 02:26:29;;;;;;;9.47;5.20;;;7.50;99.90;;;;;;5071811;28;20032;-69
2022/09/30 02:29:07;;;;;;;9.60;5.23;;;7.50;99.90;;;;;;5071511;28;20086;-68
2022/09/30 02:31:37;;;;;;;9.40;5.03;;;7.50;99.90;;;;;;5071614;28;20032;-68
2022/09/30 02:34:08;;;;;;;10.23;5.20;;;7.50;99.90;;;;;;5071861;28;20036;-69
2022/09/30 02:36:42;;;;;;;11.63;5.33;;;7.50;99.90;;;;;;5071585;28;20039;-68
2022/09/30 02:39:42;;;;;;;11.00;5.70;;;7.60;99.90;;;;;;5071511;28;20052;-68
2022/09/30 02:42:20;;;;;;;9.93;5.23;;;7.60;99.90;;;;;;5071524;28;20029;-69
2022/09/30 02:44:50;;;;;;;11.30;5.40;;;7.60;99.90;;;;;;5054000;28;20431;-69
2022/09/30 02:47:29;;;;;;;10.23;5.43;;;7.60;99.90;;;;;;5053706;28;20547;-69
2022/09/30 02:50:14;;;;;;;10.93;5.63;;;7.60;99.90;;;;;;5071413;28;20481;-68
2022/09/30 02:53:16;;;;;;;11.83;5.70;;;7.60;99.90;;;;;;5071289;28;20036;-68
2022/09/30 02:55:48;;;;;;;13.20;5.87;;;7.50;99.90;;;;;;5069123;28;20052;-68
2022/09/30 02:58:20;;;;;;;9.43;5.23;;;7.50;99.90;;;;;;5071533;28;20497;-69
2022/09/30 03:00:47;;;;;;;10.67;6.13;;;7.50;99.90;;;;;;5071028;28;20032;-69
2022/09/30 03:03:32;;;;;;;11.63;6.10;;;7.60;99.90;;;;;;5071626;28;20024;-68
2022/09/30 03:05:58;;;;;;;11.77;5.50;;;7.60;99.90;;;;;;5071248;28;20173;-68
2022/09/30 03:08:25;;;;;;;14.20;6.17;;;7.60;99.90;;;;;;5071398;28;20039;-68
2022/09/30 03:10:51;;;;;;;19.57;5.63;;;7.60;99.90;;;;;;5071227;28;20070;-69
2022/09/30 03:13:33;;;;;;;10.20;5.43;;;7.60;99.90;;;;;;5071239;28;20025;-69
2022/09/30 03:16:35;;;;;;;12.23;6.17;;;7.60;99.90;;;;;;5071024;28;20035;-69
2022/09/30 03:19:14;;;;;;;10.13;5.90;;;7.70;99.90;;;;;;5071115;28;20450;-68
2022/09/30 03:22:04;;;;;;;10.40;5.80;;;7.70;99.90;;;;;;5053322;28;20035;-68
2022/09/30 03:25:09;;;;;;;10.07;5.70;;;7.70;99.90;;;;;;5070980;28;20035;-67
2022/09/30 03:27:59;;;;;;;9.97;5.80;;;7.70;99.90;;;;;;5070986;28;20025;-68
2022/09/30 03:30:26;;;;;;;9.83;5.60;;;7.70;99.90;;;;;;5065288;28;20477;-68
2022/09/30 03:33:04;;;;;;;11.60;5.93;;;7.80;99.90;;;;;;5071100;28;20485;-68
2022/09/30 03:38:33;;;;;;;7.97;5.10;;;7.70;99.90;;;;;;5009174;28;20491;-70
2022/09/30 03:41:05;;;;;;;9.57;5.17;;;7.70;99.90;;;;;;5012812;28;20045;-70
2022/09/30 03:43:49;;;;;;;10.80;6.73;;;7.70;99.90;;;;;;5015257;28;20053;-70
2022/09/30 03:46:29;;;;;;;8.47;5.33;;;7.80;99.90;;;;;;5014956;28;20034;-73
2022/09/30 03:48:59;;;;;;;8.57;5.80;;;7.90;99.90;;;;;;5015111;28;20101;-73
2022/09/30 03:51:25;;;;;;;9.10;5.97;;;8.00;99.90;;;;;;5015040;28;20032;-71
2022/09/30 03:53:52;;;;;;;10.77;5.50;;;8.00;99.90;;;;;;5014924;28;20120;-71
2022/09/30 03:56:28;;;;;;;11.17;5.73;;;7.90;99.90;;;;;;5014807;28;20028;-71
2022/09/30 03:58:55;;;;;;;11.93;5.93;;;7.90;99.90;;;;;;5015032;28;20493;-71
2022/09/30 04:01:22;;;;;;;8.93;5.43;;;7.90;99.90;;;;;;5014668;28;20478;-71
2022/09/30 04:03:52;;;;;;;9.23;6.00;;;7.90;99.90;;;;;;5014962;28;20026;-71
2022/09/30 04:06:24;;;;;;;9.10;5.83;;;7.90;99.90;;;;;;5014541;28;20041;-71
2022/09/30 04:08:50;;;;;;;11.67;6.30;;;7.90;99.90;;;;;;5014694;28;20037;-71
2022/09/30 04:11:16;;;;;;;10.33;5.20;;;7.90;99.90;;;;;;4996868;28;20041;-71
2022/09/30 04:13:43;;;;;;;10.43;5.80;;;7.90;99.90;;;;;;4997007;28;20038;-71
2022/09/30 04:16:09;;;;;;;9.47;6.00;;;7.90;99.90;;;;;;5013115;28;20040;-71
2022/09/30 04:18:37;;;;;;;11.73;5.90;;;7.90;99.90;;;;;;5014373;28;20026;-71
2022/09/30 04:21:07;;;;;;;9.90;5.90;;;7.90;99.90;;;;;;5014441;28;20030;-71
2022/09/30 04:23:38;;;;;;;9.97;6.17;;;7.90;99.90;;;;;;5014500;28;20120;-71
2022/09/30 04:26:06;;;;;;;11.87;5.93;;;7.80;99.90;;;;;;5014356;28;20068;-71
2022/09/30 04:28:33;;;;;;;8.33;4.13;;;7.80;99.90;;;;;;5014188;28;20117;-71
2022/09/30 04:31:03;;;;;;;9.60;5.83;;;7.80;99.90;;;;;;5014309;28;20288;-71
2022/09/30 04:33:30;;;;;;;10.20;6.23;;;7.80;99.90;;;;;;5013081;28;20040;-71
2022/09/30 04:35:57;;;;;;;9.40;5.40;;;7.70;99.90;;;;;;5014030;28;20256;-71
2022/09/30 04:38:24;;;;;;;10.33;5.70;;;7.70;99.90;;;;;;4996560;28;20030;-71
2022/09/30 04:40:50;;;;;;;10.77;5.37;;;7.80;99.90;;;;;;4996464;28;20033;-71
2022/09/30 04:43:18;;;;;;;11.10;5.93;;;7.80;99.90;;;;;;5013966;28;20025;-71
2022/09/30 04:45:45;;;;;;;9.37;5.87;;;7.80;99.90;;;;;;4996505;28;20072;-71
2022/09/30 04:48:12;;;;;;;8.20;5.13;;;7.90;99.90;;;;;;5014208;28;20030;-71
2022/09/30 04:50:38;;;;;;;8.83;4.93;;;8.00;99.90;;;;;;5013829;28;20107;-71
2022/09/30 04:53:05;;;;;;;9.80;5.00;;;8.00;99.90;;;;;;4996044;28;20487;-71
2022/09/30 04:55:31;;;;;;;8.73;5.10;;;8.10;99.90;;;;;;5013881;28;20030;-71
2022/09/30 04:57:57;;;;;;;12.03;6.53;;;8.10;99.90;;;;;;4996102;28;20121;-72
2022/09/30 05:00:24;;;;;;;11.90;6.47;;;8.10;99.90;;;;;;5013464;28;20435;-72
2022/09/30 05:02:50;;;;;;;9.77;5.57;;;8.20;99.90;;;;;;5013743;28;20034;-72
2022/09/30 05:05:16;;;;;;;8.33;5.20;;;8.20;99.90;;;;;;5013715;28;20033;-72
2022/09/30 05:07:43;;;;;;;10.13;6.23;;;8.20;99.90;;;;;;5013539;28;20113;-72
2022/09/30 05:10:12;;;;;;;8.87;5.63;;;8.20;99.90;;;;;;5013571;28;20030;-72
2022/09/30 05:12:41;;;;;;;;;;;8.20;99.90;;;;;;4996492;28;20045;-72
2022/09/30 05:15:08;;;;;;;7.50;5.07;;;8.20;99.90;;;;;;5013721;28;19916;-72
2022/09/30 05:17:34;;;;;;;9.73;5.30;;;8.10;99.90;;;;;;5013334;28;20022;-72
2022/09/30 05:20:01;;;;;;;8.17;5.20;;;8.20;99.90;;;;;;5013035;28;20026;-72
2022/09/30 05:22:27;;;;;;;11.23;5.47;;;8.20;99.90;;;;;;4995598;28;20058;-71
2022/09/30 05:24:57;;;;;;;8.73;5.53;;;8.20;99.90;;;;;;5013358;28;20034;-71
2022/09/30 05:27:24;;;;;;;8.52;5.07;;;8.20;99.90;;;;;;4995560;28;20128;-71
2022/09/30 05:29:50;;;;;;;8.97;5.27;;;8.20;99.90;;;;;;5013162;28;20030;-71
2022/09/30 05:32:17;;;;;;;8.87;6.03;;;8.20;99.90;;;;;;5013222;28;20026;-71
2022/09/30 05:34:43;;;;;;;8.40;5.70;;;8.20;99.90;;;;;;5013002;28;20038;-71
2022/09/30 05:37:08;;;;;;;7.67;5.13;;;8.20;99.90;;;;;;5013040;28;20092;-71
2022/09/30 05:39:35;;;;;;;7.87;5.53;;;8.20;99.90;;;;;;5012868;28;20040;-71
2022/09/30 05:42:01;;;;;;;13.07;6.83;;;8.20;99.90;;;;;;5013146;28;20033;-71
2022/09/30 05:44:27;;;;;;;15.33;6.43;;;8.10;99.90;;;;;;5012962;28;20475;-71
2022/09/30 05:46:53;;;;;;;12.47;6.07;;;8.10;99.90;;;;;;5012770;28;20026;-71
2022/09/30 05:49:19;;;;;;;11.53;5.77;;;8.00;99.90;;;;;;5012859;28;20117;-71
2022/09/30 05:51:45;;;;;;;9.70;5.47;;;8.00;99.90;;;;;;5013016;28;20068;-71
2022/09/30 05:54:11;;;;;;;11.00;6.10;;;8.00;99.90;;;;;;5013031;28;20186;-71
2022/09/30 05:56:38;;;;;;;14.83;5.50;;;8.00;99.90;;;;;;5012564;28;20514;-71
2022/09/30 05:59:04;;;;;;;9.40;5.57;;;7.90;99.90;;;;;;5012952;28;20026;-72
2022/09/30 06:01:31;;;;;;;11.87;6.23;;;7.90;99.90;;;;;;5012914;28;20503;-71
2022/09/30 06:03:57;;;;;;;9.60;5.57;;;8.00;99.90;;;;;;5011800;28;20029;-71
2022/09/30 06:06:23;;;;;;;9.07;5.20;;;8.00;99.90;;;;;;5012446;28;20330;-71
2022/09/30 06:08:48;;;;;;;9.27;5.33;;;8.10;99.90;;;;;;5012466;28;20034;-71
2022/09/30 06:11:17;;;;;;;10.97;6.10;;;8.10;99.90;;;;;;5012495;28;20030;-72
2022/09/30 06:13:43;;;;;;;7.20;5.30;;;8.00;99.90;;;;;;5012466;28;20034;-71
2022/09/30 06:16:10;;;;;;;9.87;5.90;;;8.00;99.90;;;;;;5012347;28;20030;-71
2022/09/30 06:18:40;;;;;;;8.70;5.67;;;8.10;99.90;;;;;;4994400;28;20026;-71
2022/09/30 06:21:07;;;;;;;11.70;6.00;;;8.10;99.90;;;;;;5012211;28;20022;-71
2022/09/30 06:23:34;;;;;;;14.40;6.90;;;8.20;99.90;;;;;;5012123;28;20030;-71
2022/09/30 06:26:01;;;;;;;10.67;6.57;;;8.20;99.90;;;;;;5011969;28;20514;-71
2022/09/30 06:28:27;;;;;;;9.20;5.70;;;8.20;99.90;;;;;;5012380;28;20108;-71
2022/09/30 06:30:54;;;;;;;8.63;6.00;;;8.30;99.90;;;;;;4994199;28;20463;-71
2022/09/30 06:33:20;;;;;;;12.87;6.40;;;8.30;99.90;;;;;;5012278;28;20033;-71
2022/09/30 06:35:47;;;;;;;8.80;5.73;;;8.30;99.90;;;;;;5011920;28;20104;-72
2022/09/30 06:38:14;;;;;;;10.90;5.87;;;8.40;99.90;;;;;;5012310;28;20471;-71
2022/09/30 06:40:45;;;;;;;10.23;5.83;;;8.40;99.90;;;;;;4994059;28;20080;-72
2022/09/30 06:43:12;;;;;;;9.30;5.83;;;8.40;99.90;;;;;;5011949;28;20084;-71
2022/09/30 06:45:38;;;;;;;12.00;5.80;;;8.40;99.90;;;;;;4994133;28;20026;-71
2022/09/30 06:48:07;;;;;;;9.93;5.97;;;8.50;99.90;;;;;;5011905;28;20435;-72
2022/09/30 06:50:34;;;;;;;11.00;6.20;;;8.50;99.90;;;;;;5011485;28;20033;-72
2022/09/30 06:53:03;;;;;;;11.53;6.77;;;8.50;99.90;;;;;;5011692;28;20113;-71
2022/09/30 06:55:29;;;;;;;9.97;6.27;;;8.50;99.90;;;;;;5011724;28;20033;-71
2022/09/30 06:57:56;;;;;;;10.37;6.40;;;8.60;99.90;;;;;;5011417;28;20109;-71
2022/09/30 07:00:24;;;;;;;10.60;6.30;;;8.60;99.90;;;;;;5011283;28;20050;-71
2022/09/30 07:02:50;;;;;;;11.10;6.60;;;8.60;99.90;;;;;;5011517;28;20026;-71
2022/09/30 07:05:16;;;;;;;10.23;6.57;;;8.60;99.90;;;;;;4993908;28;20026;-72
2022/09/30 07:07:42;;;;;;;13.00;6.53;;;8.60;99.90;;;;;;5011361;28;20029;-71
2022/09/30 07:10:09;;;;;;;10.87;6.73;;;8.60;99.90;;;;;;5011312;28;20029;-71
2022/09/30 07:12:35;;;;;;;10.87;6.70;;;8.60;99.90;;;;;;5011282;28;20367;-72
2022/09/30 07:15:01;;;;;;;13.27;6.30;;;8.70;99.90;;;;;;5011489;28;20033;-71
2022/09/30 07:17:28;;;;;;;10.37;6.50;;;8.60;99.90;;;;;;5011274;28;20038;-72
2022/09/30 07:19:54;;;;;;;10.47;6.53;;;8.70;99.90;;;;;;5011123;28;20543;-72
2022/09/30 07:22:27;;;;;;;30.33;15.53;;;8.70;99.90;;;;;;5011494;28;20034;-72
2022/09/30 07:24:57;;;;;;;44.77;26.03;;;8.70;99.90;;;;;;5011306;28;20117;-72
2022/09/30 07:27:24;;;;;;;43.33;26.27;;;8.70;99.90;;;;;;4993731;28;20030;-71
2022/09/30 07:29:51;;;;;;;30.63;19.03;;;8.80;99.90;;;;;;5011127;28;20036;-72
2022/09/30 07:32:18;;;;;;;23.33;14.70;;;8.70;99.90;;;;;;4993743;28;20479;-72
2022/09/30 07:34:45;;;;;;;18.33;10.03;;;8.80;99.90;;;;;;5011356;28;20076;-72
2022/09/30 07:37:13;;;;;;;15.17;9.30;;;8.80;99.90;;;;;;5011190;28;20509;-72
2022/09/30 07:39:41;;;;;;;14.43;8.98;;;8.90;99.90;;;;;;5011449;28;20061;-72
2022/09/30 07:42:07;;;;;;;13.93;7.93;;;8.90;99.90;;;;;;5011118;28;20034;-72
2022/09/30 07:44:35;;;;;;;12.10;7.70;;;9.00;99.90;;;;;;5011127;28;20029;-72
2022/09/30 07:47:00;;;;;;;11.63;7.47;;;9.00;99.90;;;;;;5011139;28;20029;-72
2022/09/30 07:49:26;;;;;;;14.00;7.17;;;9.10;99.90;;;;;;5011260;28;20479;-72
2022/09/30 07:51:56;;;;;;;12.03;7.37;;;9.10;99.90;;;;;;5011007;28;20048;-71
2022/09/30 07:54:28;;;;;;;18.13;8.30;;;9.20;99.90;;;;;;5011001;28;20034;-71
2022/09/30 07:56:55;;;;;;;14.57;8.13;;;9.20;99.90;;;;;;5010980;28;20324;-71
2022/09/30 07:59:21;;;;;;;15.43;8.40;;;9.30;99.90;;;;;;5010883;28;20056;-71
2022/09/30 08:01:48;;;;;;;14.80;8.70;;;9.30;99.90;;;;;;5010879;28;20475;-71
2022/09/30 08:04:15;;;;;;;18.27;8.47;;;9.40;99.90;;;;;;5011006;28;20034;-71
2022/09/30 08:06:50;;;;;;;15.00;8.87;;;9.40;99.90;;;;;;5010839;28;20145;-71
2022/09/30 08:09:18;;;;;;;12.53;8.50;;;9.50;99.90;;;;;;5010786;28;20037;-71
2022/09/30 08:11:44;;;;;;;12.43;7.60;;;9.50;99.90;;;;;;5010820;28;20022;-71
2022/09/30 08:14:20;;;;;;;13.70;8.60;;;9.50;99.90;;;;;;4993263;28;20438;-71
2022/09/30 08:16:47;;;;;;;16.30;9.20;;;9.60;99.90;;;;;;4993129;28;20395;-71
2022/09/30 08:19:19;;;;;;;15.53;9.60;;;9.60;99.90;;;;;;5011190;28;20117;-71
2022/09/30 08:21:45;;;;;;;15.40;9.63;;;9.70;99.90;;;;;;5010738;28;20026;-71
2022/09/30 08:24:12;;;;;;;14.53;9.27;;;9.70;99.90;;;;;;5010714;28;20026;-71
2022/09/30 08:26:38;;;;;;;14.57;10.07;;;9.70;99.90;;;;;;4993935;28;20113;-71
2022/09/30 08:29:05;;;;;;;14.87;10.17;;;9.80;99.90;;;;;;5014278;28;20053;-71
2022/09/30 08:31:32;;;;;;;18.93;11.67;;;9.80;99.90;;;;;;5014204;28;20037;-71
2022/09/30 08:33:58;;;;;;;18.23;12.77;;;9.90;99.90;;;;;;5014393;28;20382;-71
2022/09/30 08:36:26;;;;;;;23.43;15.53;;;9.90;99.90;;;;;;5014086;28;20037;-71
2022/09/30 08:38:52;;;;;;;22.57;15.27;;;9.90;99.90;;;;;;5014144;28;20029;-71
2022/09/30 08:41:40;;;;;;;25.17;15.73;;;10.00;99.90;;;;;;5014064;28;20025;-72
2022/09/30 08:44:24;;;;;;;22.47;14.40;;;10.00;99.90;;;;;;5014234;28;20026;-72
2022/09/30 08:47:18;;;;;;;23.73;14.07;;;10.10;99.90;;;;;;5014262;28;20418;-72
2022/09/30 08:50:05;;;;;;;23.07;13.47;;;10.10;99.90;;;;;;5014146;28;20378;-72
2022/09/30 08:52:35;;;;;;;24.17;14.63;;;10.10;99.90;;;;;;4996291;28;20541;-72
2022/09/30 08:55:01;;;;;;;19.40;13.30;;;10.20;99.90;;;;;;5014051;28;20498;-72
2022/09/30 08:57:37;;;;;;;20.33;14.00;;;10.20;99.90;;;;;;5013780;28;20034;-72
2022/09/30 09:00:09;;;;;;;21.07;13.60;;;10.20;99.90;;;;;;5013640;28;20041;-72
2022/09/30 09:02:49;;;;;;;22.97;14.20;;;10.30;99.90;;;;;;4996209;28;20392;-72
2022/09/30 09:05:31;;;;;;;22.27;14.27;;;10.30;99.90;;;;;;5013634;28;20034;-72
2022/09/30 09:08:12;;;;;;;25.87;14.13;;;10.30;99.90;;;;;;4996075;28;20026;-72
2022/09/30 09:10:43;;;;;;;21.13;13.53;;;10.40;99.90;;;;;;5013499;28;20030;-72
2022/09/30 09:13:47;;;;;;;25.60;15.47;;;10.40;99.90;;;;;;4996378;28;20033;-72
2022/09/30 09:16:44;;;;;;;21.47;14.47;;;10.50;99.90;;;;;;4969716;28;20046;-71
2022/09/30 09:19:16;;;;;;;23.77;13.67;;;10.50;99.90;;;;;;4995759;28;20033;-71
2022/09/30 09:22:00;;;;;;;18.37;12.43;;;10.60;99.90;;;;;;5013194;28;20041;-71
2022/09/30 09:24:42;;;;;;;20.90;12.87;;;10.60;99.90;;;;;;5013416;28;20084;-71
2022/09/30 09:27:45;;;;;;;21.63;13.57;;;10.60;99.90;;;;;;5013283;28;20046;-71
2022/09/30 09:30:14;;;;;;;20.57;13.83;;;10.70;99.90;;;;;;4971760;28;20038;-71
2022/09/30 09:32:41;;;;;;;;;;;10.70;99.90;;;;;;5013564;28;20030;-71
2022/09/30 09:35:16;;;;;;;22.37;14.03;;;10.70;99.90;;;;;;5013127;28;20389;-71
2022/09/30 09:38:28;;;;;;;19.30;13.13;;;10.80;99.90;;;;;;5059297;22;20044;-84
2022/09/30 09:41:15;;;;;;;24.27;13.30;;;10.80;99.90;;;;;;5051122;28;20397;-84
2022/09/30 09:43:50;;;;;;;18.43;12.07;;;10.90;99.90;;;;;;5052803;28;20033;-84
2022/09/30 09:46:32;;;;;;;24.87;16.17;;;10.90;99.90;;;;;;5051308;28;20036;-84
2022/09/30 09:49:13;;;;;;;22.37;14.60;;;10.90;99.90;;;;;;5051411;28;20033;-84
2022/09/30 09:51:46;;;;;;;23.53;14.73;;;11.00;99.90;;;;;;5051267;28;20029;-84
2022/09/30 09:54:14;;;;;;;21.63;14.23;;;11.00;99.90;;;;;;5052645;28;20053;-84
2022/09/30 09:56:40;;;;;;;20.70;13.98;;;11.10;99.90;;;;;;5052515;28;20025;-84
2022/09/30 09:59:16;;;;;;;19.63;14.00;;;11.10;99.90;;;;;;5050942;28;20120;-84
2022/09/30 10:01:49;;;;;;;28.20;16.50;;;11.10;99.90;;;;;;5051274;28;20029;-84
2022/09/30 10:04:26;;;;;;;26.60;17.77;;;11.20;99.90;;;;;;5052602;28;20039;-84
2022/09/30 10:07:00;;;;;;;25.17;15.47;;;11.30;99.90;;;;;;5050829;28;20036;-84
2022/09/30 10:09:34;;;;;;;23.47;15.60;;;11.30;99.90;;;;;;5052328;28;20108;-84
2022/09/30 10:12:06;;;;;;;21.20;14.63;;;11.30;99.90;;;;;;5052374;28;20496;-84
2022/09/30 10:14:45;;;;;;;21.37;14.67;;;11.40;99.90;;;;;;5052556;28;20041;-84
2022/09/30 10:17:37;;;;;;;26.90;16.77;;;11.40;99.90;;;;;;5050755;28;20439;-84
2022/09/30 10:20:14;;;;;;;26.27;17.83;;;11.40;99.90;;;;;;5049195;28;20578;-84
2022/09/30 10:22:39;;;;;;;27.73;18.63;;;11.50;99.90;;;;;;5052237;28;20053;-84
2022/09/30 10:25:13;;;;;;;28.07;18.33;;;11.60;99.90;;;;;;5052142;28;20389;-84
2022/09/30 10:27:59;;;;;;;25.90;16.30;;;11.60;99.90;;;;;;5051817;28;20040;-84
2022/09/30 10:30:44;;;;;;;23.70;15.60;;;11.70;99.90;;;;;;5051459;28;20029;-84
2022/09/30 10:33:27;;;;;;;24.83;16.70;;;11.80;99.90;;;;;;5051649;28;20493;-84
2022/09/30 10:36:01;;;;;;;21.77;14.60;;;11.90;99.90;;;;;;5051649;28;20064;-84
2022/09/30 10:38:28;;;;;;;17.93;12.73;;;11.90;99.90;;;;;;5051382;28;20037;-83
2022/09/30 10:40:55;;;;;;;20.80;12.60;;;12.00;99.90;;;;;;5051323;28;20067;-84
2022/09/30 10:43:28;;;;;;;18.57;11.70;;;12.00;99.90;;;;;;5051207;28;20048;-84
2022/09/30 10:45:55;;;;;;;16.60;12.15;;;12.00;99.90;;;;;;5049913;28;20051;-84
2022/09/30 10:48:24;;;;;;;18.55;12.30;;;12.00;99.90;;;;;;5051410;28;20029;-84
2022/09/30 10:50:52;;;;;;;16.40;11.20;;;12.10;99.90;;;;;;5049405;28;20059;-84
2022/09/30 10:53:28;;;;;;;21.08;11.60;;;12.10;99.90;;;;;;5051206;28;20032;-84
2022/09/30 10:55:56;;;;;;;18.27;12.02;;;12.00;99.90;;;;;;5049959;28;20477;-84
2022/09/30 10:58:36;;;;;;;19.23;12.25;;;12.10;99.90;;;;;;5049830;28;20486;-84
2022/09/30 11:01:33;;;;;;;17.77;10.90;;;12.20;99.90;;;;;;5051033;28;20032;-84
2022/09/30 11:04:32;;;;;;;18.60;11.93;;;12.30;99.90;;;;;;5051148;28;20039;-84
2022/09/30 11:07:10;;;;;;;18.60;12.53;;;12.40;99.90;;;;;;5051002;28;20087;-84
2022/09/30 11:09:56;;;;;;;17.15;11.80;;;12.40;99.90;;;;;;5050885;28;20021;-84
2022/09/30 11:12:38;;;;;;;16.77;11.10;;;12.50;99.90;;;;;;5050945;28;20033;-84
2022/09/30 11:15:30;;;;;;;17.00;11.63;;;12.60;99.90;;;;;;5033071;28;20106;-84
2022/09/30 11:18:22;;;;;;;17.50;11.50;;;12.70;99.90;;;;;;5050272;28;20045;-84
2022/09/30 11:20:54;;;;;;;18.35;10.32;;;12.70;99.90;;;;;;5050574;28;20043;-84
2022/09/30 11:23:29;;;;;;;13.93;9.23;;;12.80;99.90;;;;;;5049795;28;20036;-84
2022/09/30 11:26:09;;;;;;;18.48;11.25;;;12.90;99.90;;;;;;5050630;28;20029;-84
2022/09/30 11:28:59;;;;;;;15.73;10.27;;;12.90;99.90;;;;;;5050513;28;20032;-84
2022/09/30 11:31:47;;;;;;;13.75;9.05;;;13.00;99.90;;;;;;5032747;28;20044;-84
2022/09/30 11:34:33;;;;;;;14.98;10.00;;;13.00;99.90;;;;;;5050610;28;20029;-84
2022/09/30 11:37:28;;;;;;;12.73;8.68;;;13.10;99.90;;;;;;5050302;28;20036;-84
2022/09/30 11:40:11;;;;;;;13.57;8.65;;;13.20;99.90;;;;;;5050336;28;20033;-84
2022/09/30 11:42:54;;;;;;;12.35;8.20;;;13.30;99.90;;;;;;5050807;28;20025;-84
2022/09/30 11:45:34;;;;;;;11.43;7.47;;;13.30;99.90;;;;;;5050675;28;20036;-84
2022/09/30 11:48:12;;;;;;;9.57;6.95;;;13.30;99.90;;;;;;5050372;28;20043;-84
2022/09/30 11:50:43;;;;;;;12.27;8.13;;;13.30;99.90;;;;;;5050588;28;20047;-84
2022/09/30 11:53:38;;;;;;;11.80;7.65;;;13.30;99.90;;;;;;5051471;28;20106;-84
2022/09/30 11:56:27;;;;;;;13.82;7.15;;;13.30;99.90;;;;;;5046245;28;20037;-84
2022/09/30 11:58:57;;;;;;;12.02;7.43;;;13.40;99.90;;;;;;5050277;28;20032;-84
2022/09/30 12:01:43;;;;;;;9.55;6.50;;;13.40;99.90;;;;;;5050829;28;20104;-84
2022/09/30 12:04:31;;;;;;;10.05;6.72;;;13.40;99.90;;;;;;5053280;28;20033;-84
2022/09/30 12:07:11;;;;;;;11.17;5.83;;;13.50;99.90;;;;;;5054166;28;20036;-84
2022/09/30 12:09:43;;;;;;;8.95;6.28;;;13.60;99.90;;;;;;5054088;28;20037;-84
2022/09/30 12:12:15;;;;;;;11.68;6.53;;;13.60;99.90;;;;;;5054249;28;20037;-84
2022/09/30 12:14:43;;;;;;;10.18;6.75;;;13.60;99.90;;;;;;5054325;28;20108;-84
2022/09/30 12:17:18;;;;;;;11.77;6.40;;;13.60;99.90;;;;;;5053886;28;20120;-84
2022/09/30 12:19:49;;;;;;;13.55;7.80;;;13.60;99.90;;;;;;5054036;28;20029;-84
2022/09/30 12:22:20;;;;;;;11.30;6.97;;;13.60;99.90;;;;;;5053116;28;20028;-84
2022/09/30 12:24:46;;;;;;;10.25;6.38;;;13.60;99.90;;;;;;5054108;28;20029;-84
2022/09/30 12:27:27;;;;;;;9.25;6.68;;;13.60;99.90;;;;;;5054560;28;20175;-84
2022/09/30 12:30:19;;;;;;;11.82;6.45;;;13.70;99.90;;;;;;5055237;28;20104;-84
2022/09/30 12:32:50;;;;;;;11.63;6.00;;;13.70;99.90;;;;;;5054025;28;20519;-84
2022/09/30 12:35:38;;;;;;;9.70;5.78;;;13.70;99.90;;;;;;5055352;28;20033;-84
2022/09/30 12:38:24;;;;;;;7.82;5.22;;;13.70;99.90;;;;;;5053868;28;20118;-84
2022/09/30 12:41:10;;;;;;;6.75;4.93;;;13.70;99.90;;;;;;5055617;28;20086;-83
2022/09/30 12:44:33;;;;;;;9.32;5.50;;;13.70;99.90;;;;;;5053137;28;20040;-84
2022/09/30 12:47:12;;;;;;;10.05;4.90;;;13.70;99.90;;;;;;5011133;28;20061;-84
2022/09/30 12:49:39;;;;;;;6.75;4.93;;;13.80;99.90;;;;;;5011241;28;20142;-85
2022/09/30 12:52:16;;;;;;;7.40;5.28;;;13.80;99.90;;;;;;5025493;28;20469;-85
2022/09/30 12:54:48;;;;;;;8.52;5.43;;;13.90;99.90;;;;;;5053867;28;20033;-85
2022/09/30 12:57:29;;;;;;;7.07;4.88;;;13.90;99.90;;;;;;5053183;28;20056;-85
2022/09/30 13:00:00;;;;;;;5.43;4.10;;;14.10;99.90;;;;;;5053062;28;20039;-85
2022/09/30 13:02:39;;;;;;;6.93;3.70;;;14.10;99.90;;;;;;5052095;28;20492;-84
2022/09/30 13:05:26;;;;;;;6.28;3.47;;;14.10;99.90;;;;;;5053808;28;20094;-85
2022/09/30 13:08:04;;;;;;;7.30;4.50;;;14.20;99.90;;;;;;5053190;28;20028;-85
2022/09/30 13:10:42;;;;;;;7.95;4.45;;;14.30;99.90;;;;;;5052941;28;20044;-85
2022/09/30 13:13:23;;;;;;;6.03;3.47;;;14.30;99.90;;;;;;5053023;28;20269;-85
2022/09/30 13:15:50;;;;;;;5.65;3.60;;;14.30;99.90;;;;;;5052910;28;20025;-85
2022/09/30 13:18:19;;;;;;;5.85;3.92;;;14.40;99.90;;;;;;5053161;28;20033;-85
2022/09/30 13:21:08;;;;;;;5.22;3.67;;;14.50;99.80;;;;;;5051372;28;20032;-85